createdAt,value
2018-04-06T00:02:07.617Z,3.70
2018-04-06T00:04:34.312Z,3.60
2018-04-06T00:07:01.008Z,5.10
2018-04-06T00:09:27.684Z,4.50
2018-04-06T00:11:54.406Z,4.30
2018-04-06T00:14:21.090Z,4.37
2018-04-06T00:16:47.772Z,4.80
2018-04-06T00:19:14.712Z,4.43
2018-04-06T00:21:41.397Z,4.60
2018-04-06T00:24:08.413Z,4.20
2018-04-06T00:26:35.088Z,4.80
2018-04-06T00:29:01.765Z,4.87
2018-04-06T00:31:28.473Z,4.70
2018-04-06T00:33:55.269Z,4.40
2018-04-06T00:36:21.964Z,4.30
2018-04-06T00:38:48.681Z,3.80
2018-04-06T00:41:15.381Z,3.70
2018-04-06T00:43:42.068Z,3.70
2018-04-06T00:46:08.753Z,4.10
2018-04-06T00:48:35.438Z,4.93
2018-04-06T00:51:02.117Z,4.80
2018-04-06T00:53:34.717Z,3.80
2018-04-06T00:56:01.387Z,3.10
2018-04-06T00:58:28.097Z,3.93
2018-04-06T01:00:54.784Z,4.60
2018-04-06T01:03:21.537Z,3.63
2018-04-06T01:05:48.257Z,4.80
2018-04-06T01:08:14.932Z,4.03
2018-04-06T01:10:41.652Z,5.10
2018-04-06T01:13:08.379Z,3.77
2018-04-06T01:15:35.080Z,3.33
2018-04-06T01:18:01.789Z,3.80
2018-04-06T01:20:28.478Z,3.70
2018-04-06T01:22:55.173Z,3.67
2018-04-06T01:25:21.868Z,3.40
2018-04-06T01:27:48.601Z,4.00
2018-04-06T01:30:15.451Z,4.13
2018-04-06T01:32:42.202Z,4.07
2018-04-06T01:35:08.901Z,4.23
2018-04-06T01:37:35.622Z,5.00
2018-04-06T01:40:02.308Z,4.70
2018-04-06T01:42:28.989Z,3.53
2018-04-06T01:44:55.693Z,5.13
2018-04-06T01:47:22.379Z,3.53
2018-04-06T01:49:49.082Z,3.83
2018-04-06T01:52:15.755Z,4.07
2018-04-06T01:54:42.450Z,3.73
2018-04-06T01:57:09.140Z,3.53
2018-04-06T01:59:35.820Z,4.00
2018-04-06T02:02:02.508Z,4.20
2018-04-06T02:04:29.197Z,3.73
2018-04-06T02:06:55.881Z,4.63
2018-04-06T02:09:22.588Z,4.30
2018-04-06T02:11:49.297Z,4.90
2018-04-06T02:14:15.964Z,3.97
2018-04-06T02:16:42.657Z,4.13
2018-04-06T02:19:09.332Z,4.40
2018-04-06T02:21:36.012Z,4.50
2018-04-06T02:24:03.588Z,3.93
2018-04-06T02:26:30.265Z,4.77
2018-04-06T02:28:57.029Z,4.07
2018-04-06T02:31:23.704Z,4.37
2018-04-06T02:33:50.644Z,4.00
2018-04-06T02:36:17.321Z,4.60
2018-04-06T02:38:44.028Z,3.27
2018-04-06T02:41:10.717Z,4.60
2018-04-06T02:43:37.460Z,4.60
2018-04-06T02:46:04.106Z,4.47
2018-04-06T02:48:30.791Z,5.10
2018-04-06T02:50:57.494Z,5.80
2018-04-06T02:53:24.296Z,5.30
2018-04-06T02:55:50.975Z,5.13
2018-04-06T02:58:17.681Z,4.17
2018-04-06T03:00:44.350Z,3.53
2018-04-06T03:03:11.076Z,4.10
2018-04-06T03:05:37.725Z,4.47
2018-04-06T03:08:04.428Z,6.50
2018-04-06T03:10:31.236Z,6.00
2018-04-06T03:12:57.941Z,6.13
2018-04-06T03:15:24.604Z,3.93
2018-04-06T03:17:51.441Z,3.53
2018-04-06T03:20:18.137Z,4.40
2018-04-06T03:22:44.813Z,5.70
2018-04-06T03:25:11.501Z,5.00
2018-04-06T03:27:38.181Z,6.23
2018-04-06T03:30:04.889Z,4.70
2018-04-06T03:32:31.560Z,4.67
2018-04-06T03:34:58.255Z,4.17
2018-04-06T03:37:24.933Z,5.10
2018-04-06T03:39:51.638Z,6.23
2018-04-06T03:42:18.313Z,7.60
2018-04-06T03:44:44.977Z,5.80
2018-04-06T03:47:11.666Z,5.80
2018-04-06T03:49:38.333Z,5.77
2018-04-06T03:52:05.036Z,5.90
2018-04-06T03:54:31.805Z,5.53
2018-04-06T03:56:58.493Z,5.40
2018-04-06T03:59:25.172Z,6.10
2018-04-06T04:01:51.868Z,5.93
2018-04-06T04:04:18.569Z,6.37
2018-04-06T04:06:45.244Z,6.60
2018-04-06T04:09:12.068Z,6.07
2018-04-06T04:11:38.737Z,5.40
2018-04-06T04:14:05.437Z,5.17
2018-04-06T04:16:32.144Z,5.37
2018-04-06T04:18:58.837Z,4.57
2018-04-06T04:21:25.552Z,5.53
2018-04-06T04:23:52.254Z,5.53
2018-04-06T04:26:18.968Z,6.27
2018-04-06T04:28:45.648Z,5.30
2018-04-06T04:31:12.392Z,5.17
2018-04-06T04:33:39.094Z,5.67
2018-04-06T04:36:05.925Z,5.47
2018-04-06T04:38:32.609Z,5.23
2018-04-06T04:40:59.300Z,4.53
2018-04-06T04:43:25.988Z,5.37
2018-04-06T04:45:52.683Z,5.13
2018-04-06T04:48:19.372Z,5.23
2018-04-06T04:50:46.225Z,6.13
2018-04-06T04:53:12.935Z,6.87
2018-04-06T04:55:39.581Z,8.70
2018-04-06T04:58:06.276Z,6.40
2018-04-06T05:00:32.984Z,6.87
2018-04-06T05:02:59.689Z,6.50
2018-04-06T05:05:26.376Z,6.97
2018-04-06T05:07:53.074Z,6.57
2018-04-06T05:10:19.771Z,7.67
2018-04-06T05:12:46.481Z,6.77
2018-04-06T05:15:13.321Z,6.40
2018-04-06T05:17:40.055Z,6.47
2018-04-06T05:20:06.710Z,6.70
2018-04-06T05:22:33.392Z,6.67
2018-04-06T05:25:00.077Z,5.03
2018-04-06T05:27:26.808Z,5.70
2018-04-06T05:29:53.479Z,6.10
2018-04-06T05:32:20.247Z,7.03
2018-04-06T05:34:46.932Z,7.47
2018-04-06T05:37:13.785Z,8.47
2018-04-06T05:39:40.472Z,8.37
2018-04-06T05:42:07.157Z,7.90
2018-04-06T05:44:33.848Z,9.10
2018-04-06T05:47:00.550Z,9.20
2018-04-06T05:49:27.245Z,8.77
2018-04-06T05:51:53.940Z,7.53
2018-04-06T05:54:20.785Z,8.83
2018-04-06T05:56:47.466Z,8.40
2018-04-06T05:59:14.137Z,8.40
2018-04-06T06:01:40.971Z,7.10
2018-04-06T06:04:07.675Z,8.07
2018-04-06T06:06:34.341Z,6.93
2018-04-06T06:09:01.029Z,7.40
2018-04-06T06:11:27.717Z,8.63
2018-04-06T06:13:54.491Z,6.60
2018-04-06T06:16:21.189Z,7.53
2018-04-06T06:18:47.898Z,7.03
2018-04-06T06:21:14.613Z,7.60
2018-04-06T06:23:41.302Z,8.70
2018-04-06T06:26:07.985Z,8.30
2018-04-06T06:28:34.680Z,7.33
2018-04-06T06:31:01.372Z,7.60
2018-04-06T06:33:28.067Z,7.20
2018-04-06T06:35:55.001Z,7.13
2018-04-06T06:38:21.853Z,8.13
2018-04-06T06:40:48.532Z,7.83
2018-04-06T06:43:15.233Z,7.70
2018-04-06T06:45:41.941Z,7.30
2018-04-06T06:48:08.653Z,7.43
2018-04-06T06:50:35.352Z,7.40
2018-04-06T06:53:02.016Z,8.17
2018-04-06T06:55:28.746Z,8.43
2018-04-06T06:57:55.533Z,7.47
2018-04-06T07:00:22.239Z,7.90
2018-04-06T07:02:48.988Z,8.10
2018-04-06T07:05:15.669Z,8.50
2018-04-06T07:07:42.383Z,8.13
2018-04-06T07:10:09.082Z,7.80
2018-04-06T07:12:35.759Z,8.30
2018-04-06T07:15:02.458Z,7.87
2018-04-06T07:17:29.132Z,7.27
2018-04-06T07:19:55.842Z,6.73
2018-04-06T07:22:22.765Z,6.43
2018-04-06T07:24:49.446Z,7.30
2018-04-06T07:27:16.245Z,8.30
2018-04-06T07:29:43.034Z,6.80
2018-04-06T07:32:09.784Z,6.43
2018-04-06T07:34:36.482Z,6.90
2018-04-06T07:37:03.315Z,6.07
2018-04-06T07:39:29.989Z,6.57
2018-04-06T07:41:56.674Z,6.03
2018-04-06T07:44:23.369Z,5.83
2018-04-06T07:46:50.057Z,6.30
2018-04-06T07:49:16.720Z,6.17
2018-04-06T07:51:43.429Z,6.40
2018-04-06T07:54:10.205Z,5.77
2018-04-06T07:56:36.873Z,6.30
2018-04-06T07:59:03.555Z,5.20
2018-04-06T08:01:30.256Z,4.83
2018-04-06T08:03:57.140Z,5.37
2018-04-06T08:06:23.836Z,4.60
2018-04-06T08:08:51.370Z,5.03
2018-04-06T08:11:18.152Z,5.80
2018-04-06T08:13:44.826Z,5.27
2018-04-06T08:16:11.517Z,5.20
2018-04-06T08:18:38.188Z,5.80
2018-04-06T08:21:04.891Z,4.83
2018-04-06T08:23:31.548Z,4.80
2018-04-06T08:25:58.344Z,4.50
2018-04-06T08:28:25.021Z,5.20
2018-04-06T08:30:51.742Z,5.37
2018-04-06T08:33:18.409Z,4.93
2018-04-06T08:35:45.120Z,4.53
2018-04-06T08:38:11.793Z,4.90
2018-04-06T08:40:38.747Z,4.40
2018-04-06T08:43:05.440Z,4.67
2018-04-06T08:45:32.109Z,4.50
2018-04-06T08:47:58.809Z,4.33
2018-04-06T08:50:25.492Z,5.17
2018-04-06T08:52:52.296Z,3.90
2018-04-06T08:55:18.992Z,3.70
2018-04-06T08:57:45.649Z,3.90
2018-04-06T09:00:12.393Z,3.93
2018-04-06T09:02:39.089Z,4.00
2018-04-06T09:05:05.786Z,3.83
2018-04-06T09:07:32.457Z,4.30
2018-04-06T09:09:59.180Z,3.17
2018-04-06T09:12:25.875Z,3.20
2018-04-06T09:14:52.555Z,3.17
2018-04-06T09:17:19.372Z,3.27
2018-04-06T09:19:46.064Z,2.77
2018-04-06T09:22:12.767Z,3.43
2018-04-06T09:24:39.449Z,3.10
2018-04-06T09:27:06.163Z,3.10
2018-04-06T09:29:32.839Z,3.17
2018-04-06T09:31:59.685Z,3.57
2018-04-06T09:34:26.389Z,2.47
2018-04-06T09:36:53.284Z,2.60
2018-04-06T09:39:20.196Z,2.87
2018-04-06T09:41:46.866Z,2.77
2018-04-06T09:44:13.583Z,3.53
2018-04-06T09:46:40.272Z,2.70
2018-04-06T09:49:06.977Z,2.27
2018-04-06T09:51:33.728Z,2.50
2018-04-06T09:54:00.485Z,2.30
2018-04-06T09:56:27.173Z,2.93
2018-04-06T09:58:53.873Z,1.83
2018-04-06T10:01:20.544Z,2.30
2018-04-06T10:03:47.216Z,2.27
2018-04-06T10:06:13.934Z,2.33
2018-04-06T10:08:40.633Z,2.03
2018-04-06T10:11:07.406Z,2.00
2018-04-06T10:13:34.109Z,2.23
2018-04-06T10:16:00.882Z,1.93
2018-04-06T10:18:27.697Z,1.93
2018-04-06T10:20:54.443Z,2.67
2018-04-06T10:23:21.111Z,1.73
2018-04-06T10:25:47.870Z,1.90
2018-04-06T10:28:14.577Z,2.30
2018-04-06T10:30:41.268Z,2.27
2018-04-06T10:33:07.957Z,1.63
2018-04-06T10:35:34.674Z,2.20
2018-04-06T10:38:01.363Z,1.97
2018-04-06T10:40:28.083Z,2.17
2018-04-06T10:42:54.761Z,2.10
2018-04-06T10:45:21.483Z,2.47
2018-04-06T10:47:48.158Z,2.07
2018-04-06T10:50:14.853Z,1.97
2018-04-06T10:52:41.562Z,2.23
2018-04-06T10:55:08.280Z,2.50
2018-04-06T10:57:34.982Z,2.10
2018-04-06T11:00:01.694Z,2.07
2018-04-06T11:02:28.368Z,2.00
2018-04-06T11:04:55.134Z,1.93
2018-04-06T11:07:21.857Z,2.23
2018-04-06T11:09:48.546Z,1.90
2018-04-06T11:12:15.432Z,2.43
2018-04-06T11:14:42.179Z,1.90
2018-04-06T11:17:08.880Z,1.70
2018-04-06T11:19:35.637Z,1.60
2018-04-06T11:22:02.346Z,1.97
2018-04-06T11:24:29.036Z,1.50
2018-04-06T11:26:55.717Z,2.23
2018-04-06T11:29:22.425Z,1.40
2018-04-06T11:31:49.121Z,1.63
2018-04-06T11:34:16.014Z,1.57
2018-04-06T11:36:42.713Z,1.93
2018-04-06T11:39:09.393Z,1.37
2018-04-06T11:41:36.117Z,1.60
2018-04-06T11:44:02.815Z,2.00
2018-04-06T11:46:29.491Z,1.60
2018-04-06T11:48:56.229Z,1.90
2018-04-06T11:51:22.932Z,1.50
2018-04-06T11:53:49.636Z,1.40
2018-04-06T11:56:16.323Z,1.30
2018-04-06T11:58:47.574Z,1.60
2018-04-06T12:01:14.301Z,1.70
2018-04-06T12:03:40.989Z,1.03
2018-04-06T12:06:07.669Z,1.20
2018-04-06T12:08:34.369Z,1.20
2018-04-06T12:11:01.075Z,1.00
2018-04-06T12:13:27.880Z,1.40
2018-04-06T12:15:54.573Z,1.20
2018-04-06T12:18:21.277Z,1.47
2018-04-06T12:20:47.965Z,1.93
2018-04-06T12:23:14.681Z,1.63
2018-04-06T12:25:41.501Z,1.13
2018-04-06T12:28:08.245Z,1.10
2018-04-06T12:30:34.928Z,1.33
2018-04-06T12:33:01.621Z,1.80
2018-04-06T12:35:28.349Z,1.07
2018-04-06T12:37:55.035Z,1.20
2018-04-06T12:40:21.725Z,1.23
2018-04-06T12:42:48.408Z,1.40
2018-04-06T12:45:15.083Z,1.30
2018-04-06T12:47:41.789Z,1.20
2018-04-06T12:50:08.461Z,1.20
2018-04-06T12:52:35.246Z,1.37
2018-04-06T12:55:02.047Z,1.43
2018-04-06T12:57:28.735Z,1.37
2018-04-06T12:59:55.424Z,1.37
2018-04-06T13:02:22.105Z,1.40
2018-04-06T13:04:48.812Z,1.43
2018-04-06T13:07:15.486Z,3.00
2018-04-06T13:09:42.181Z,1.80
2018-04-06T13:12:08.888Z,1.67
2018-04-06T13:14:35.656Z,1.20
2018-04-06T13:17:03.217Z,1.27
2018-04-06T13:19:32.105Z,1.70
2018-04-06T13:21:58.796Z,1.47
2018-04-06T13:24:25.493Z,1.10
2018-04-06T13:26:54.325Z,1.20
2018-04-06T13:29:21.846Z,1.27
2018-04-06T13:31:48.513Z,1.43
2018-04-06T13:34:15.224Z,2.33
2018-04-06T13:36:41.913Z,1.30
2018-04-06T13:39:08.608Z,1.43
2018-04-06T13:41:35.430Z,1.43
2018-04-06T13:44:02.128Z,1.57
2018-04-06T13:46:28.801Z,1.73
2018-04-06T13:48:55.520Z,1.00
2018-04-06T13:51:22.214Z,1.53
2018-04-06T13:53:48.970Z,1.27
2018-04-06T13:56:15.660Z,2.00
2018-04-06T13:58:42.365Z,1.30
2018-04-06T14:01:09.297Z,1.27
2018-04-06T14:03:35.928Z,1.27
2018-04-06T14:06:02.644Z,1.10
2018-04-06T14:08:29.338Z,1.67
2018-04-06T14:10:56.005Z,1.23
2018-04-06T14:13:22.725Z,1.60
2018-04-06T14:15:49.529Z,1.57
2018-04-06T14:18:16.233Z,1.27
2018-04-06T14:20:43.061Z,1.43
2018-04-06T14:23:09.758Z,1.40
2018-04-06T14:25:36.533Z,1.73
2018-04-06T14:28:03.242Z,1.60
2018-04-06T14:30:29.972Z,1.10
2018-04-06T14:32:56.658Z,1.27
2018-04-06T14:35:23.363Z,1.50
2018-04-06T14:37:50.049Z,1.67
2018-04-06T14:40:16.973Z,1.30
2018-04-06T14:42:43.645Z,1.80
2018-04-06T14:45:10.341Z,1.30
2018-04-06T14:47:37.043Z,1.03
2018-04-06T14:50:03.737Z,1.60
2018-04-06T14:52:30.432Z,1.17
2018-04-06T14:54:57.114Z,1.50
2018-04-06T14:57:23.825Z,1.60
2018-04-06T14:59:50.508Z,1.70
2018-04-06T15:02:17.358Z,1.40
2018-04-06T15:04:44.028Z,1.13
2018-04-06T15:07:10.729Z,2.00
2018-04-06T15:09:37.416Z,2.03
2018-04-06T15:12:04.159Z,1.50
2018-04-06T15:14:30.985Z,1.70
2018-04-06T15:16:57.665Z,1.57
2018-04-06T15:19:24.381Z,1.30
2018-04-06T15:21:51.060Z,1.80
2018-04-06T15:24:17.741Z,1.53
2018-04-06T15:26:44.552Z,1.40
2018-04-06T15:29:11.245Z,1.33
2018-04-06T15:31:37.949Z,1.33
2018-04-06T15:34:04.764Z,1.93
2018-04-06T15:36:31.444Z,1.40
2018-04-06T15:38:58.156Z,2.00
2018-04-06T15:41:25.061Z,1.70
2018-04-06T15:43:51.749Z,2.30
2018-04-06T15:46:18.494Z,1.70
2018-04-06T15:48:45.177Z,1.33
2018-04-06T15:51:11.865Z,1.73
2018-04-06T15:53:38.687Z,2.03
2018-04-06T15:56:05.390Z,2.20
2018-04-06T15:58:32.069Z,1.90
2018-04-06T16:00:58.911Z,1.80
2018-04-06T16:03:25.605Z,1.53
2018-04-06T16:05:52.276Z,1.70
2018-04-06T16:08:18.987Z,1.53
2018-04-06T16:10:45.683Z,1.87
2018-04-06T16:13:12.373Z,1.47
2018-04-06T16:15:39.172Z,1.50
2018-04-06T16:18:05.869Z,1.70
2018-04-06T16:20:32.567Z,1.73
2018-04-06T16:22:59.387Z,1.40
2018-04-06T16:25:26.069Z,1.60
2018-04-06T16:27:52.736Z,1.73
2018-04-06T16:30:19.445Z,1.50
2018-04-06T16:32:46.217Z,1.83
2018-04-06T16:35:12.926Z,1.90
2018-04-06T16:37:39.614Z,1.40
2018-04-06T16:40:06.368Z,1.60
2018-04-06T16:42:33.074Z,1.87
2018-04-06T16:44:59.783Z,1.63
2018-04-06T16:47:26.751Z,1.70
2018-04-06T16:49:53.448Z,2.00
2018-04-06T16:52:20.137Z,1.70
2018-04-06T16:54:46.842Z,1.60
2018-04-06T16:57:13.584Z,1.70
2018-04-06T16:59:40.257Z,1.43
2018-04-06T17:02:06.964Z,1.67
2018-04-06T17:04:33.633Z,1.60
2018-04-06T17:07:00.299Z,1.40
2018-04-06T17:09:26.981Z,1.70
2018-04-06T17:11:53.734Z,1.80
2018-04-06T17:14:20.398Z,1.30
2018-04-06T17:16:47.077Z,1.20
2018-04-06T17:19:13.872Z,1.13
2018-04-06T17:21:40.578Z,1.40
2018-04-06T17:24:07.266Z,1.30
2018-04-06T17:26:33.965Z,1.30
2018-04-06T17:29:00.798Z,1.70
2018-04-06T17:31:27.482Z,2.40
2018-04-06T17:33:54.410Z,1.60
2018-04-06T17:36:21.124Z,1.67
2018-04-06T17:38:47.834Z,1.10
2018-04-06T17:41:14.517Z,1.33
2018-04-06T17:43:41.186Z,1.67
2018-04-06T17:46:07.855Z,1.40
2018-04-06T17:48:34.537Z,1.20
2018-04-06T17:51:01.213Z,1.40
2018-04-06T17:53:27.886Z,1.30
2018-04-06T17:55:54.632Z,1.20
2018-04-06T17:58:21.413Z,1.10
2018-04-06T18:00:48.101Z,1.13
2018-04-06T18:03:14.799Z,0.97
2018-04-06T18:05:41.517Z,1.73
2018-04-06T18:08:08.245Z,1.90
2018-04-06T18:10:34.947Z,1.30
2018-04-06T18:13:01.646Z,1.70
2018-04-06T18:15:28.483Z,1.10
2018-04-06T18:17:55.208Z,1.40
2018-04-06T18:20:21.881Z,1.47
2018-04-06T18:22:48.597Z,1.87
2018-04-06T18:25:15.296Z,1.20
2018-04-06T18:27:42.010Z,1.10
2018-04-06T18:30:08.697Z,1.60
2018-04-06T18:32:35.409Z,1.30
2018-04-06T18:35:02.133Z,1.70
2018-04-06T18:37:28.820Z,1.40
2018-04-06T18:39:55.525Z,1.30
2018-04-06T18:42:22.197Z,1.77
2018-04-06T18:44:48.926Z,1.50
2018-04-06T18:47:15.573Z,1.60
2018-04-06T18:49:42.330Z,1.53
2018-04-06T18:52:09.031Z,0.93
2018-04-06T18:54:35.733Z,1.50
2018-04-06T18:57:02.414Z,1.60
2018-04-06T18:59:29.104Z,1.27
2018-04-06T19:01:55.813Z,1.37
2018-04-06T19:04:22.474Z,1.30
2018-04-06T19:06:49.313Z,1.50
2018-04-06T19:09:16.072Z,1.77
2018-04-06T19:11:42.746Z,1.87
2018-04-06T19:14:09.452Z,1.60
2018-04-06T19:16:36.244Z,1.50
2018-04-06T19:19:02.927Z,1.73
2018-04-06T19:21:30.102Z,1.80
2018-04-06T19:23:56.802Z,1.90
2018-04-06T19:26:23.489Z,2.10
2018-04-06T19:28:50.196Z,1.43
2018-04-06T19:31:16.897Z,1.70
2018-04-06T19:33:43.628Z,1.70
2018-04-06T19:36:10.339Z,2.20
2018-04-06T19:38:37.004Z,1.73
2018-04-06T19:41:03.719Z,1.50
2018-04-06T19:43:30.444Z,1.92
2018-04-06T19:45:57.119Z,1.80
2018-04-06T19:48:23.815Z,2.07
2018-04-06T19:50:50.512Z,2.33
2018-04-06T19:53:17.226Z,2.20
2018-04-06T19:55:43.925Z,2.37
2018-04-06T19:58:10.610Z,2.30
2018-04-06T20:00:37.333Z,2.40
2018-04-06T20:03:04.023Z,1.70
2018-04-06T20:05:30.732Z,1.80
2018-04-06T20:07:57.484Z,2.30
2018-04-06T20:10:24.166Z,2.30
2018-04-06T20:12:50.874Z,2.10
2018-04-06T20:15:17.561Z,2.37
2018-04-06T20:17:44.261Z,1.97
2018-04-06T20:20:11.013Z,2.10
2018-04-06T20:22:37.727Z,2.57
2018-04-06T20:25:04.404Z,2.50
2018-04-06T20:27:31.256Z,1.90
2018-04-06T20:29:57.950Z,2.70
2018-04-06T20:32:24.640Z,2.20
2018-04-06T20:34:51.324Z,2.70
2018-04-06T20:37:18.049Z,2.67
2018-04-06T20:39:44.739Z,2.60
2018-04-06T20:42:11.449Z,3.13
2018-04-06T20:44:38.131Z,2.70
2018-04-06T20:47:04.833Z,3.00
2018-04-06T20:49:31.606Z,2.70
2018-04-06T20:51:58.326Z,2.87
2018-04-06T20:54:25.108Z,2.40
2018-04-06T20:56:51.803Z,3.10
2018-04-06T20:59:18.534Z,2.40
2018-04-06T21:01:45.221Z,3.30
2018-04-06T21:04:11.913Z,2.77
2018-04-06T21:06:38.611Z,3.33
2018-04-06T21:09:06.101Z,3.00
2018-04-06T21:11:32.784Z,2.90
2018-04-06T21:13:59.488Z,2.97
2018-04-06T21:16:26.159Z,2.40
2018-04-06T21:18:52.862Z,4.03
2018-04-06T21:21:19.754Z,3.50
2018-04-06T21:23:46.427Z,3.27
2018-04-06T21:26:13.143Z,3.03
2018-04-06T21:28:39.826Z,3.00
2018-04-06T21:31:06.645Z,2.73
2018-04-06T21:33:33.342Z,2.67
2018-04-06T21:36:00.169Z,3.20
2018-04-06T21:38:26.892Z,2.80
2018-04-06T21:40:53.574Z,2.97
2018-04-06T21:43:20.302Z,2.80
2018-04-06T21:45:46.964Z,3.10
2018-04-06T21:48:13.662Z,3.57
2018-04-06T21:50:40.448Z,2.93
2018-04-06T21:53:07.145Z,3.17
2018-04-06T21:55:33.865Z,3.00
2018-04-06T21:58:00.657Z,3.23
2018-04-06T22:00:27.352Z,3.23
2018-04-06T22:02:54.041Z,3.20
2018-04-06T22:05:20.928Z,3.47
2018-04-06T22:07:47.681Z,3.30
2018-04-06T22:10:14.416Z,3.60
2018-04-06T22:12:41.074Z,2.70
2018-04-06T22:15:07.768Z,3.53
2018-04-06T22:17:34.551Z,3.53
2018-04-06T22:20:01.270Z,3.13
2018-04-06T22:22:27.952Z,3.23
2018-04-06T22:24:54.685Z,3.70
2018-04-06T22:27:21.388Z,4.00
2018-04-06T22:29:48.082Z,3.20
2018-04-06T22:32:14.782Z,3.63
2018-04-06T22:34:41.527Z,3.67
2018-04-06T22:37:08.205Z,2.93
2018-04-06T22:39:34.914Z,3.20
2018-04-06T22:42:01.618Z,3.73
2018-04-06T22:44:28.337Z,3.17
2018-04-06T22:46:55.018Z,3.10
2018-04-06T22:49:21.712Z,3.00
2018-04-06T22:51:48.439Z,3.53
2018-04-06T22:54:15.147Z,3.03
2018-04-06T22:56:41.857Z,4.10
2018-04-06T22:59:08.541Z,4.40
2018-04-06T23:01:35.239Z,3.87
2018-04-06T23:04:01.933Z,3.57
2018-04-06T23:06:28.668Z,4.10
2018-04-06T23:08:55.365Z,3.20
2018-04-06T23:11:22.049Z,3.23
2018-04-06T23:13:48.749Z,4.10
2018-04-06T23:16:15.484Z,3.80
2018-04-06T23:18:42.190Z,3.90
2018-04-06T23:21:08.865Z,3.40
2018-04-06T23:23:35.585Z,3.73
2018-04-06T23:26:02.381Z,4.20
2018-04-06T23:28:29.051Z,3.27
2018-04-06T23:30:55.892Z,3.20
2018-04-06T23:33:22.572Z,3.60
2018-04-06T23:35:49.269Z,3.87
2018-04-06T23:38:15.992Z,3.50
2018-04-06T23:40:42.709Z,3.83
2018-04-06T23:43:09.381Z,4.50
2018-04-06T23:45:36.084Z,3.77
2018-04-06T23:48:02.801Z,3.70
2018-04-06T23:50:29.479Z,3.40
2018-04-06T23:52:56.187Z,3.60
2018-04-06T23:55:22.848Z,3.67
2018-04-06T23:57:49.662Z,3.60
